createdAt,value
2023-04-22T00:02:02.803Z,25.17
2023-04-22T00:04:30.066Z,24.50
2023-04-22T00:06:56.882Z,24.20
2023-04-22T00:09:24.171Z,24.42
2023-04-22T00:11:50.674Z,27.75
2023-04-22T00:14:17.561Z,34.33
2023-04-22T00:16:44.244Z,27.45
2023-04-22T00:19:10.996Z,30.25
2023-04-22T00:21:37.482Z,25.85
2023-04-22T00:24:04.141Z,23.73
2023-04-22T00:26:30.630Z,28.48
2023-04-22T00:28:57.487Z,31.95
2023-04-22T00:31:24.125Z,34.70
2023-04-22T00:33:50.895Z,25.33
2023-04-22T00:36:17.419Z,32.33
2023-04-22T00:38:46.995Z,24.02
2023-04-22T00:41:13.662Z,28.77
2023-04-22T00:43:40.239Z,28.38
2023-04-22T00:46:06.739Z,20.90
2023-04-22T00:48:33.302Z,27.95
2023-04-22T00:50:59.716Z,22.90
2023-04-22T00:53:26.300Z,29.00
2023-04-22T00:55:52.871Z,25.58
2023-04-22T00:58:21.091Z,31.35
2023-04-22T01:00:47.636Z,27.63
2023-04-22T01:03:14.548Z,30.65
2023-04-22T01:05:41.616Z,26.92
2023-04-22T01:08:08.214Z,30.90
2023-04-22T01:10:35.453Z,25.88
2023-04-22T01:13:01.920Z,25.42
2023-04-22T01:15:28.866Z,30.73
2023-04-22T01:17:56.446Z,27.38
2023-04-22T01:20:23.420Z,34.38
2023-04-22T01:22:50.853Z,21.92
2023-04-22T01:25:17.686Z,26.33
2023-04-22T01:27:44.265Z,22.25
2023-04-22T01:30:11.527Z,25.13
2023-04-22T01:32:39.031Z,27.13
2023-04-22T01:35:05.968Z,27.10
2023-04-22T01:37:32.505Z,30.48
2023-04-22T01:39:59.361Z,30.75
2023-04-22T01:42:26.099Z,21.70
2023-04-22T01:44:52.720Z,25.63
2023-04-22T01:47:19.296Z,23.17
2023-04-22T01:49:45.937Z,26.50
2023-04-22T01:52:12.657Z,32.22
2023-04-22T01:54:39.232Z,24.63
2023-04-22T01:57:10.945Z,22.25
2023-04-22T01:59:38.191Z,23.05
2023-04-22T02:02:04.882Z,25.88
2023-04-22T02:04:31.619Z,30.88
2023-04-22T02:06:58.081Z,27.63
2023-04-22T02:09:24.727Z,30.58
2023-04-22T02:11:51.154Z,23.38
2023-04-22T02:14:17.716Z,29.98
2023-04-22T02:16:44.343Z,23.10
2023-04-22T02:19:10.939Z,29.13
2023-04-22T02:21:37.524Z,30.20
2023-04-22T02:24:04.682Z,29.92
2023-04-22T02:26:31.262Z,31.08
2023-04-22T02:28:57.728Z,26.50
2023-04-22T02:31:24.243Z,39.28
2023-04-22T02:33:50.806Z,28.67
2023-04-22T02:36:17.484Z,26.67
2023-04-22T02:38:44.153Z,28.20
2023-04-22T02:41:10.767Z,23.80
2023-04-22T02:43:37.255Z,27.83
2023-04-22T02:46:03.797Z,32.63
2023-04-22T02:48:30.313Z,24.50
2023-04-22T02:50:56.799Z,26.63
2023-04-22T02:53:23.324Z,30.73
2023-04-22T02:55:49.914Z,25.38
2023-04-22T02:58:16.874Z,22.63
2023-04-22T03:00:43.468Z,28.02
2023-04-22T03:03:10.136Z,33.92
2023-04-22T03:05:36.779Z,36.05
2023-04-22T03:08:03.266Z,30.45
2023-04-22T03:10:29.742Z,29.73
2023-04-22T03:12:56.329Z,28.40
2023-04-22T03:15:22.894Z,31.38
2023-04-22T03:17:49.765Z,26.40
2023-04-22T03:20:16.528Z,28.55
2023-04-22T03:22:43.047Z,34.10
2023-04-22T03:25:10.960Z,31.83
2023-04-22T03:27:37.544Z,26.75
2023-04-22T03:30:04.846Z,22.10
2023-04-22T03:32:31.474Z,30.13
2023-04-22T03:34:58.029Z,30.73
2023-04-22T03:37:24.524Z,28.45
2023-04-22T03:39:51.070Z,28.23
2023-04-22T03:42:17.660Z,27.45
2023-04-22T03:44:44.177Z,29.35
2023-04-22T03:47:10.646Z,26.10
2023-04-22T03:49:37.804Z,26.23
2023-04-22T03:52:04.725Z,25.88
2023-04-22T03:54:31.207Z,22.10
2023-04-22T03:56:58.174Z,25.38
2023-04-22T03:59:24.824Z,28.05
2023-04-22T04:01:51.657Z,25.25
2023-04-22T04:04:18.417Z,33.22
2023-04-22T04:06:45.055Z,29.13
2023-04-22T04:09:12.183Z,27.30
2023-04-22T04:11:38.726Z,23.70
2023-04-22T04:14:05.285Z,24.65
2023-04-22T04:16:31.970Z,25.80
2023-04-22T04:18:58.478Z,26.98
2023-04-22T04:21:25.052Z,24.08
2023-04-22T04:23:51.548Z,26.35
2023-04-22T04:26:18.298Z,26.75
2023-04-22T04:28:44.755Z,28.80
2023-04-22T04:31:11.345Z,26.98
2023-04-22T04:33:37.889Z,29.83
2023-04-22T04:36:04.551Z,22.58
2023-04-22T04:38:31.169Z,26.80
2023-04-22T04:40:58.137Z,28.70
2023-04-22T04:43:26.353Z,28.15
2023-04-22T04:45:53.148Z,30.00
2023-04-22T04:48:25.175Z,36.08
2023-04-22T04:50:54.115Z,21.75
2023-04-22T04:53:22.302Z,23.33
2023-04-22T04:55:49.168Z,24.33
2023-04-22T04:58:15.704Z,24.27
2023-04-22T05:00:42.192Z,22.13
2023-04-22T05:03:08.906Z,31.85
2023-04-22T05:05:35.766Z,30.60
2023-04-22T05:08:02.262Z,25.48
2023-04-22T05:10:28.694Z,26.77
2023-04-22T05:12:55.131Z,21.45
2023-04-22T05:15:21.587Z,26.33
2023-04-22T05:17:48.222Z,30.00
2023-04-22T05:20:14.792Z,26.10
2023-04-22T05:22:45.992Z,22.95
2023-04-22T05:25:12.497Z,33.33
2023-04-22T05:27:39.125Z,22.17
2023-04-22T05:30:06.368Z,30.23
2023-04-22T05:32:32.881Z,30.88
2023-04-22T05:34:59.402Z,20.05
2023-04-22T05:37:25.929Z,33.75
2023-04-22T05:39:52.433Z,27.33
2023-04-22T05:42:19.355Z,21.52
2023-04-22T05:44:45.811Z,25.95
2023-04-22T05:47:12.297Z,25.17
2023-04-22T05:49:38.930Z,21.50
2023-04-22T05:52:05.665Z,29.23
2023-04-22T05:54:32.154Z,21.35
2023-04-22T05:56:58.719Z,28.80
2023-04-22T05:59:25.414Z,22.02
2023-04-22T06:01:52.040Z,39.10
2023-04-22T06:04:18.979Z,30.10
2023-04-22T06:06:45.598Z,25.25
2023-04-22T06:09:12.047Z,21.90
2023-04-22T06:11:38.604Z,21.60
2023-04-22T06:14:05.123Z,30.10
2023-04-22T06:16:31.700Z,24.73
2023-04-22T06:18:58.295Z,37.28
2023-04-22T06:21:24.730Z,28.90
2023-04-22T06:23:51.277Z,19.17
2023-04-22T06:26:17.820Z,24.92
2023-04-22T06:28:44.424Z,21.13
2023-04-22T06:31:11.075Z,24.27
2023-04-22T06:33:37.689Z,24.63
2023-04-22T06:36:05.164Z,22.80
2023-04-22T06:38:31.797Z,27.77
2023-04-22T06:40:58.337Z,23.58
2023-04-22T06:43:24.932Z,26.08
2023-04-22T06:45:51.445Z,23.25
2023-04-22T06:48:18.018Z,23.83
2023-04-22T06:50:44.593Z,19.52
2023-04-22T06:53:11.248Z,31.92
2023-04-22T06:55:37.817Z,27.70
2023-04-22T06:58:04.400Z,30.10
2023-04-22T07:00:30.951Z,22.35
2023-04-22T07:02:57.826Z,21.48
2023-04-22T07:05:24.533Z,22.65
2023-04-22T07:07:51.384Z,20.10
2023-04-22T07:10:17.835Z,22.60
2023-04-22T07:12:45.397Z,22.10
2023-04-22T07:15:11.954Z,21.05
2023-04-22T07:17:38.715Z,19.20
2023-04-22T07:20:05.531Z,21.38
2023-04-22T18:37:29.737Z,25.30
2023-04-22T18:39:59.213Z,27.98
2023-04-22T18:42:25.851Z,44.92
2023-04-22T18:44:52.305Z,31.80
2023-04-22T18:47:18.817Z,31.35
2023-04-22T18:49:45.583Z,32.33
2023-04-22T18:52:12.366Z,30.75
2023-04-22T18:54:39.296Z,33.22
2023-04-22T18:57:06.290Z,30.20
2023-04-22T18:59:32.824Z,35.35
2023-04-22T19:01:59.425Z,30.65
2023-04-22T19:04:26.293Z,34.70
2023-04-22T19:06:52.950Z,42.33
2023-04-22T19:09:19.680Z,30.40
2023-04-22T19:11:47.589Z,36.45
2023-04-22T19:14:14.707Z,37.67
2023-04-22T19:16:41.268Z,40.67
2023-04-22T19:19:08.141Z,35.60
2023-04-22T19:21:34.823Z,42.25
2023-04-22T19:24:01.401Z,42.47
2023-04-22T19:26:29.443Z,42.25
2023-04-22T19:28:56.100Z,42.70
2023-04-22T19:31:22.800Z,46.03
2023-04-22T19:33:49.531Z,43.00
2023-04-22T19:36:16.199Z,41.80
2023-04-22T19:38:43.475Z,42.92
2023-04-22T19:41:11.599Z,39.42
2023-04-22T19:43:38.494Z,43.08
2023-04-22T19:46:05.265Z,40.65
2023-04-22T19:48:32.090Z,39.60
2023-04-22T19:50:59.138Z,36.40
2023-04-22T19:53:26.061Z,52.55
2023-04-22T19:55:52.767Z,44.05
2023-04-22T19:58:19.787Z,35.58
2023-04-22T20:00:46.744Z,38.53
2023-04-22T20:03:14.634Z,42.22
2023-04-22T20:05:41.705Z,50.00
2023-04-22T20:08:09.311Z,41.58
2023-04-22T20:10:36.772Z,32.40
2023-04-22T20:13:04.684Z,42.22
2023-04-22T20:15:31.295Z,38.22
2023-04-22T20:17:57.934Z,37.17
2023-04-22T20:20:24.661Z,42.10
2023-04-22T20:22:52.284Z,35.20
2023-04-22T20:25:19.052Z,39.80
2023-04-22T20:27:45.754Z,37.55
2023-04-22T20:30:13.720Z,33.42
2023-04-22T20:32:40.500Z,38.13
2023-04-22T20:35:07.470Z,36.90
2023-04-22T20:37:34.650Z,32.22
2023-04-22T20:40:04.674Z,34.72
2023-04-22T20:42:33.136Z,39.33
2023-04-22T20:44:59.741Z,41.90
2023-04-22T20:47:26.510Z,31.15
2023-04-22T20:49:53.080Z,35.33
2023-04-22T20:52:19.735Z,38.83
2023-04-22T20:54:46.629Z,32.95
2023-04-22T20:57:13.352Z,38.22
2023-04-22T20:59:39.885Z,29.38
2023-04-22T21:02:07.007Z,26.63
2023-04-22T21:04:33.871Z,27.13
2023-04-22T21:07:03.960Z,31.58
2023-04-22T21:09:31.156Z,24.30
2023-04-22T21:11:57.881Z,27.05
2023-04-22T21:14:26.538Z,22.05
2023-04-22T21:17:12.077Z,25.63
2023-04-22T21:19:38.902Z,23.30
2023-04-22T21:22:06.200Z,22.23
2023-04-22T21:24:35.008Z,22.40
2023-04-22T21:27:01.844Z,22.13
2023-04-22T21:29:29.032Z,25.38
2023-04-22T21:32:08.059Z,19.30
2023-04-22T21:34:35.507Z,30.55
2023-04-22T21:37:02.040Z,26.63
2023-04-22T21:39:29.454Z,22.40
2023-04-22T21:41:55.919Z,29.58
2023-04-22T21:44:22.529Z,30.88
2023-04-22T21:46:48.956Z,43.10
2023-04-22T21:49:15.674Z,23.45
2023-04-22T21:51:42.201Z,28.00
2023-04-22T21:54:08.690Z,29.00
2023-04-22T21:56:35.927Z,30.83
2023-04-22T21:59:02.526Z,28.23
2023-04-22T22:01:29.156Z,29.42
2023-04-22T22:03:55.792Z,29.13
2023-04-22T22:06:22.464Z,27.98
2023-04-22T22:08:48.965Z,22.90
2023-04-22T22:11:27.536Z,20.45
2023-04-22T22:13:57.175Z,24.35
2023-04-22T22:16:24.789Z,20.85
2023-04-22T22:18:51.940Z,22.88
2023-04-22T22:21:18.617Z,19.95
2023-04-22T22:23:45.234Z,23.73
2023-04-22T22:26:11.688Z,17.05
2023-04-22T22:28:38.419Z,17.95
2023-04-22T22:31:04.939Z,23.35
2023-04-22T22:33:31.414Z,18.38
2023-04-22T22:35:57.941Z,16.65
2023-04-22T22:38:24.465Z,17.75
2023-04-22T22:40:51.184Z,16.20
2023-04-22T22:43:17.675Z,18.02
2023-04-22T22:45:44.411Z,16.05
2023-04-22T22:48:11.161Z,19.60
2023-04-22T22:50:37.889Z,14.82
2023-04-22T22:53:04.484Z,16.40
2023-04-22T22:55:31.059Z,16.92
2023-04-22T22:57:57.533Z,17.92
2023-04-22T23:00:24.203Z,14.05
2023-04-22T23:02:50.755Z,16.48
2023-04-22T23:05:17.500Z,21.05
2023-04-22T23:07:44.073Z,13.73
2023-04-22T23:10:10.736Z,14.98
2023-04-22T23:12:37.262Z,15.80
2023-04-22T23:15:04.661Z,17.23
2023-04-22T23:17:31.248Z,15.05
2023-04-22T23:19:58.106Z,14.57
2023-04-22T23:22:24.823Z,24.08
2023-04-22T23:24:51.442Z,14.88
2023-04-22T23:27:18.818Z,18.58
2023-04-22T23:29:45.533Z,15.30
2023-04-22T23:32:14.964Z,20.35
2023-04-22T23:34:44.459Z,21.85
2023-04-22T23:37:14.288Z,15.13
2023-04-22T23:39:42.102Z,23.25
2023-04-22T23:42:08.598Z,16.60
2023-04-22T23:44:35.159Z,18.80
2023-04-22T23:47:01.698Z,20.88
2023-04-22T23:49:29.018Z,11.40
2023-04-22T23:51:55.864Z,14.43
2023-04-22T23:54:22.411Z,14.15
2023-04-22T23:56:48.907Z,12.45
2023-04-22T23:59:15.658Z,11.52
